Terminal Aerodrome Forecast
Issued by NWS Paducah, KY

Home | Current Version | Previous Version | Graphics & Text | Print | Product List | Glossary On
Versions: 1 2 3 4 5 6 7 8 9 10 11 12 13 14 15 16 17 18
000
FTUS43 KPAH 292300
TAFEVV
TAF
KEVV 292336Z 3000/3024 34011G18KT P6SM OVC030
     FM300315 34006G18KT P6SM OVC026
     FM301800 36007KT P6SM BKN028
     FM302200 36003KT P6SM SKC=

USA.gov is the U.S. government's official web portal to all federal, state and local government web resources and services.